sensor_id;sensor_type;location;lat;lon;timestamp;temperature;humidity
65478;SHT31;53678;39.642;22.430;2022-12-18T00:01:14;13.18;97.32
65478;SHT31;53678;39.642;22.430;2022-12-18T00:03:44;13.18;97.26
65478;SHT31;53678;39.642;22.430;2022-12-18T00:06:10;13.22;97.22
65478;SHT31;53678;39.642;22.430;2022-12-18T00:08:37;13.25;97.21
65478;SHT31;53678;39.642;22.430;2022-12-18T00:11:05;13.28;97.21
65478;SHT31;53678;39.642;22.430;2022-12-18T00:13:31;13.21;97.08
65478;SHT31;53678;39.642;22.430;2022-12-18T00:16:10;13.22;97.27
65478;SHT31;53678;39.642;22.430;2022-12-18T00:18:36;13.24;97.25
65478;SHT31;53678;39.642;22.430;2022-12-18T00:21:04;13.34;97.24
65478;SHT31;53678;39.642;22.430;2022-12-18T00:23:31;13.41;96.94
65478;SHT31;53678;39.642;22.430;2022-12-18T00:26:06;13.53;96.98
65478;SHT31;53678;39.642;22.430;2022-12-18T00:28:33;13.45;96.86
65478;SHT31;53678;39.642;22.430;2022-12-18T00:31:05;13.39;96.94
65478;SHT31;53678;39.642;22.430;2022-12-18T00:33:31;13.35;96.94
65478;SHT31;53678;39.642;22.430;2022-12-18T00:36:04;13.31;96.94
65478;SHT31;53678;39.642;22.430;2022-12-18T00:38:31;13.26;96.92
65478;SHT31;53678;39.642;22.430;2022-12-18T00:40:57;13.24;96.96
65478;SHT31;53678;39.642;22.430;2022-12-18T00:43:23;13.21;97.11
65478;SHT31;53678;39.642;22.430;2022-12-18T00:45:50;13.24;97.25
65478;SHT31;53678;39.642;22.430;2022-12-18T00:48:16;13.16;97.15
65478;SHT31;53678;39.642;22.430;2022-12-18T00:50:42;13.16;97.25
65478;SHT31;53678;39.642;22.430;2022-12-18T00:53:09;13.18;97.21
65478;SHT31;53678;39.642;22.430;2022-12-18T00:55:37;13.16;97.27
65478;SHT31;53678;39.642;22.430;2022-12-18T00:58:03;13.11;97.33
65478;SHT31;53678;39.642;22.430;2022-12-18T01:00:29;13.10;97.38
65478;SHT31;53678;39.642;22.430;2022-12-18T01:02:55;13.01;97.47
65478;SHT31;53678;39.642;22.430;2022-12-18T01:05:21;12.95;97.59
65478;SHT31;53678;39.642;22.430;2022-12-18T01:07:48;12.97;97.62
65478;SHT31;53678;39.642;22.430;2022-12-18T01:10:14;12.95;97.62
65478;SHT31;53678;39.642;22.430;2022-12-18T01:12:40;12.95;97.61
65478;SHT31;53678;39.642;22.430;2022-12-18T01:15:07;12.90;97.48
65478;SHT31;53678;39.642;22.430;2022-12-18T01:17:33;12.91;97.57
65478;SHT31;53678;39.642;22.430;2022-12-18T01:20:00;12.88;97.61
65478;SHT31;53678;39.642;22.430;2022-12-18T01:22:26;12.87;97.54
65478;SHT31;53678;39.642;22.430;2022-12-18T01:24:52;12.88;97.59
65478;SHT31;53678;39.642;22.430;2022-12-18T01:27:21;12.88;97.53
65478;SHT31;53678;39.642;22.430;2022-12-18T01:29:46;12.84;97.54
65478;SHT31;53678;39.642;22.430;2022-12-18T01:32:12;12.88;97.61
65478;SHT31;53678;39.642;22.430;2022-12-18T01:34:38;12.91;97.60
65478;SHT31;53678;39.642;22.430;2022-12-18T01:37:05;12.85;97.54
65478;SHT31;53678;39.642;22.430;2022-12-18T01:39:31;12.81;97.60
65478;SHT31;53678;39.642;22.430;2022-12-18T01:42:02;12.83;97.56
65478;SHT31;53678;39.642;22.430;2022-12-18T01:49:55;12.66;97.81
65478;SHT31;53678;39.642;22.430;2022-12-18T01:52:22;12.66;97.89
65478;SHT31;53678;39.642;22.430;2022-12-18T01:54:50;12.66;98.02
65478;SHT31;53678;39.642;22.430;2022-12-18T01:57:18;12.67;98.01
65478;SHT31;53678;39.642;22.430;2022-12-18T01:59:49;12.72;97.99
65478;SHT31;53678;39.642;22.430;2022-12-18T02:02:16;12.72;97.98
65478;SHT31;53678;39.642;22.430;2022-12-18T02:04:43;12.70;98.03
65478;SHT31;53678;39.642;22.430;2022-12-18T02:12:56;12.70;98.00
65478;SHT31;53678;39.642;22.430;2022-12-18T02:18:21;12.64;97.82
65478;SHT31;53678;39.642;22.430;2022-12-18T02:23:56;12.67;98.05
65478;SHT31;53678;39.642;22.430;2022-12-18T02:26:38;12.68;98.03
65478;SHT31;53678;39.642;22.430;2022-12-18T02:29:36;12.73;97.79
65478;SHT31;53678;39.642;22.430;2022-12-18T02:32:07;12.74;97.71
65478;SHT31;53678;39.642;22.430;2022-12-18T02:34:39;12.67;97.66
65478;SHT31;53678;39.642;22.430;2022-12-18T02:37:12;12.72;97.83
65478;SHT31;53678;39.642;22.430;2022-12-18T02:39:41;12.64;97.65
65478;SHT31;53678;39.642;22.430;2022-12-18T02:42:11;12.61;97.78
65478;SHT31;53678;39.642;22.430;2022-12-18T02:44:44;12.57;97.89
65478;SHT31;53678;39.642;22.430;2022-12-18T02:47:12;12.61;97.96
65478;SHT31;53678;39.642;22.430;2022-12-18T02:58:04;12.72;97.76
65478;SHT31;53678;39.642;22.430;2022-12-18T03:00:40;12.73;97.70
65478;SHT31;53678;39.642;22.430;2022-12-18T03:05:53;12.76;97.61
65478;SHT31;53678;39.642;22.430;2022-12-18T03:08:24;12.73;97.59
65478;SHT31;53678;39.642;22.430;2022-12-18T03:10:59;12.73;97.56
65478;SHT31;53678;39.642;22.430;2022-12-18T03:13:33;12.74;97.59
65478;SHT31;53678;39.642;22.430;2022-12-18T03:16:03;12.76;97.66
65478;SHT31;53678;39.642;22.430;2022-12-18T03:21:04;12.76;97.50
65478;SHT31;53678;39.642;22.430;2022-12-18T03:23:37;12.79;97.58
65478;SHT31;53678;39.642;22.430;2022-12-18T03:26:10;12.83;97.55
65478;SHT31;53678;39.642;22.430;2022-12-18T03:29:02;12.85;97.55
65478;SHT31;53678;39.642;22.430;2022-12-18T03:31:35;12.90;97.40
65478;SHT31;53678;39.642;22.430;2022-12-18T03:34:09;12.90;97.46
65478;SHT31;53678;39.642;22.430;2022-12-18T03:36:42;12.93;97.41
65478;SHT31;53678;39.642;22.430;2022-12-18T03:39:08;12.91;97.42
65478;SHT31;53678;39.642;22.430;2022-12-18T03:48:14;12.95;97.33
65478;SHT31;53678;39.642;22.430;2022-12-18T03:51:00;12.91;97.27
65478;SHT31;53678;39.642;22.430;2022-12-18T03:56:18;12.81;97.19
65478;SHT31;53678;39.642;22.430;2022-12-18T03:58:45;12.77;97.19
65478;SHT31;53678;39.642;22.430;2022-12-18T04:01:20;12.77;97.27
65478;SHT31;53678;39.642;22.430;2022-12-18T04:03:48;12.80;97.28
65478;SHT31;53678;39.642;22.430;2022-12-18T04:06:17;12.79;97.19
65478;SHT31;53678;39.642;22.430;2022-12-18T04:08:44;12.84;97.16
65478;SHT31;53678;39.642;22.430;2022-12-18T04:11:15;12.81;97.19
65478;SHT31;53678;39.642;22.430;2022-12-18T04:13:44;12.83;97.15
65478;SHT31;53678;39.642;22.430;2022-12-18T04:16:18;12.79;97.07
65478;SHT31;53678;39.642;22.430;2022-12-18T04:18:46;12.79;97.13
65478;SHT31;53678;39.642;22.430;2022-12-18T04:21:13;12.81;97.14
65478;SHT31;53678;39.642;22.430;2022-12-18T04:23:41;12.77;97.16
65478;SHT31;53678;39.642;22.430;2022-12-18T04:26:08;12.80;97.38
65478;SHT31;53678;39.642;22.430;2022-12-18T04:28:54;12.79;97.24
65478;SHT31;53678;39.642;22.430;2022-12-18T04:31:20;12.73;97.18
65478;SHT31;53678;39.642;22.430;2022-12-18T04:33:46;12.74;97.27
65478;SHT31;53678;39.642;22.430;2022-12-18T04:36:13;12.74;97.40
65478;SHT31;53678;39.642;22.430;2022-12-18T04:38:40;12.77;97.38
65478;SHT31;53678;39.642;22.430;2022-12-18T04:41:10;12.80;97.37
65478;SHT31;53678;39.642;22.430;2022-12-18T04:43:36;12.85;97.31
65478;SHT31;53678;39.642;22.430;2022-12-18T04:46:06;12.83;97.21
65478;SHT31;53678;39.642;22.430;2022-12-18T04:48:33;12.81;97.18
65478;SHT31;53678;39.642;22.430;2022-12-18T04:50:59;12.84;97.28
65478;SHT31;53678;39.642;22.430;2022-12-18T04:53:25;12.85;97.16
65478;SHT31;53678;39.642;22.430;2022-12-18T04:55:50;12.83;97.20
65478;SHT31;53678;39.642;22.430;2022-12-18T04:58:16;12.80;97.25
65478;SHT31;53678;39.642;22.430;2022-12-18T05:00:42;12.74;97.21
65478;SHT31;53678;39.642;22.430;2022-12-18T05:03:08;12.72;97.27
65478;SHT31;53678;39.642;22.430;2022-12-18T05:05:35;12.67;97.29
65478;SHT31;53678;39.642;22.430;2022-12-18T05:08:01;12.66;97.34
65478;SHT31;53678;39.642;22.430;2022-12-18T05:10:26;12.66;97.34
65478;SHT31;53678;39.642;22.430;2022-12-18T05:12:53;12.68;97.34
65478;SHT31;53678;39.642;22.430;2022-12-18T05:15:29;12.61;97.30
65478;SHT31;53678;39.642;22.430;2022-12-18T05:17:57;12.63;97.38
65478;SHT31;53678;39.642;22.430;2022-12-18T05:20:23;12.66;97.40
65478;SHT31;53678;39.642;22.430;2022-12-18T05:22:50;12.66;97.35
65478;SHT31;53678;39.642;22.430;2022-12-18T05:25:16;12.66;97.32
65478;SHT31;53678;39.642;22.430;2022-12-18T05:27:42;12.68;97.31
65478;SHT31;53678;39.642;22.430;2022-12-18T05:30:09;12.67;97.21
65478;SHT31;53678;39.642;22.430;2022-12-18T05:32:35;12.63;97.37
65478;SHT31;53678;39.642;22.430;2022-12-18T05:35:01;12.67;97.45
65478;SHT31;53678;39.642;22.430;2022-12-18T05:37:28;12.64;97.33
65478;SHT31;53678;39.642;22.430;2022-12-18T05:39:53;12.67;97.37
65478;SHT31;53678;39.642;22.430;2022-12-18T05:42:19;12.66;97.24
65478;SHT31;53678;39.642;22.430;2022-12-18T05:44:45;12.66;97.28
65478;SHT31;53678;39.642;22.430;2022-12-18T05:47:11;12.64;97.44
65478;SHT31;53678;39.642;22.430;2022-12-18T05:49:37;12.64;97.37
65478;SHT31;53678;39.642;22.430;2022-12-18T05:52:04;12.63;97.34
65478;SHT31;53678;39.642;22.430;2022-12-18T05:54:30;12.61;97.40
65478;SHT31;53678;39.642;22.430;2022-12-18T05:56:57;12.63;97.34
65478;SHT31;53678;39.642;22.430;2022-12-18T05:59:23;12.61;97.35
65478;SHT31;53678;39.642;22.430;2022-12-18T06:01:49;12.61;97.38
65478;SHT31;53678;39.642;22.430;2022-12-18T06:04:14;12.66;97.48
65478;SHT31;53678;39.642;22.430;2022-12-18T06:06:40;12.66;97.48
65478;SHT31;53678;39.642;22.430;2022-12-18T06:09:06;12.73;97.38
65478;SHT31;53678;39.642;22.430;2022-12-18T06:11:38;12.79;97.40
65478;SHT31;53678;39.642;22.430;2022-12-18T06:14:05;12.83;97.34
65478;SHT31;53678;39.642;22.430;2022-12-18T06:16:32;12.84;97.29
65478;SHT31;53678;39.642;22.430;2022-12-18T06:19:03;12.87;97.27
65478;SHT31;53678;39.642;22.430;2022-12-18T06:21:31;12.88;97.26
65478;SHT31;53678;39.642;22.430;2022-12-18T06:23:57;12.91;97.21
65478;SHT31;53678;39.642;22.430;2022-12-18T06:26:24;12.93;97.27
65478;SHT31;53678;39.642;22.430;2022-12-18T06:28:50;12.90;97.20
65478;SHT31;53678;39.642;22.430;2022-12-18T06:31:16;12.94;97.22
65478;SHT31;53678;39.642;22.430;2022-12-18T06:33:43;12.93;97.18
65478;SHT31;53678;39.642;22.430;2022-12-18T06:36:12;12.88;97.02
65478;SHT31;53678;39.642;22.430;2022-12-18T06:38:41;12.90;97.15
65478;SHT31;53678;39.642;22.430;2022-12-18T06:41:13;12.93;97.25
65478;SHT31;53678;39.642;22.430;2022-12-18T06:43:41;12.94;97.21
65478;SHT31;53678;39.642;22.430;2022-12-18T06:46:07;12.88;97.12
65478;SHT31;53678;39.642;22.430;2022-12-18T06:48:33;12.79;97.13
65478;SHT31;53678;39.642;22.430;2022-12-18T06:51:00;12.80;97.28
65478;SHT31;53678;39.642;22.430;2022-12-18T06:53:26;12.77;97.23
65478;SHT31;53678;39.642;22.430;2022-12-18T06:56:00;12.77;97.30
65478;SHT31;53678;39.642;22.430;2022-12-18T06:58:26;12.83;97.38
65478;SHT31;53678;39.642;22.430;2022-12-18T07:00:52;12.85;97.21
65478;SHT31;53678;39.642;22.430;2022-12-18T07:03:18;12.79;97.18
65478;SHT31;53678;39.642;22.430;2022-12-18T07:05:44;12.84;97.27
65478;SHT31;53678;39.642;22.430;2022-12-18T07:08:10;12.83;97.27
65478;SHT31;53678;39.642;22.430;2022-12-18T07:10:42;12.81;97.31
65478;SHT31;53678;39.642;22.430;2022-12-18T07:13:08;12.80;97.21
65478;SHT31;53678;39.642;22.430;2022-12-18T07:15:35;12.84;97.34
65478;SHT31;53678;39.642;22.430;2022-12-18T07:18:02;12.88;97.33
65478;SHT31;53678;39.642;22.430;2022-12-18T07:20:28;12.81;97.19
65478;SHT31;53678;39.642;22.430;2022-12-18T07:22:53;12.79;97.34
65478;SHT31;53678;39.642;22.430;2022-12-18T07:25:19;12.83;97.35
65478;SHT31;53678;39.642;22.430;2022-12-18T07:27:45;12.84;97.25
65478;SHT31;53678;39.642;22.430;2022-12-18T07:30:11;12.85;97.23
65478;SHT31;53678;39.642;22.430;2022-12-18T07:32:37;12.87;97.22
65478;SHT31;53678;39.642;22.430;2022-12-18T07:35:03;12.84;96.98
65478;SHT31;53678;39.642;22.430;2022-12-18T07:37:29;12.83;97.16
65478;SHT31;53678;39.642;22.430;2022-12-18T07:39:55;12.85;97.23
65478;SHT31;53678;39.642;22.430;2022-12-18T07:42:20;12.93;97.25
65478;SHT31;53678;39.642;22.430;2022-12-18T07:44:59;12.98;97.27
65478;SHT31;53678;39.642;22.430;2022-12-18T07:47:28;13.07;97.16
65478;SHT31;53678;39.642;22.430;2022-12-18T07:49:57;13.14;97.18
65478;SHT31;53678;39.642;22.430;2022-12-18T07:52:23;13.21;97.11
65478;SHT31;53678;39.642;22.430;2022-12-18T07:54:49;13.21;96.99
65478;SHT31;53678;39.642;22.430;2022-12-18T07:57:16;13.28;97.10
65478;SHT31;53678;39.642;22.430;2022-12-18T07:59:42;13.28;96.88
65478;SHT31;53678;39.642;22.430;2022-12-18T08:02:08;13.32;97.02
65478;SHT31;53678;39.642;22.430;2022-12-18T08:04:34;13.24;96.69
65478;SHT31;53678;39.642;22.430;2022-12-18T08:06:59;13.25;96.92
65478;SHT31;53678;39.642;22.430;2022-12-18T08:09:25;13.21;96.91
65478;SHT31;53678;39.642;22.430;2022-12-18T08:11:51;13.24;96.80
65478;SHT31;53678;39.642;22.430;2022-12-18T08:14:17;13.12;96.99
65478;SHT31;53678;39.642;22.430;2022-12-18T08:16:43;13.14;97.24
65478;SHT31;53678;39.642;22.430;2022-12-18T08:19:08;13.12;97.03
65478;SHT31;53678;39.642;22.430;2022-12-18T08:21:34;13.12;97.06
65478;SHT31;53678;39.642;22.430;2022-12-18T08:24:01;13.12;96.96
65478;SHT31;53678;39.642;22.430;2022-12-18T08:26:30;13.10;97.14
65478;SHT31;53678;39.642;22.430;2022-12-18T08:28:57;13.03;97.12
65478;SHT31;53678;39.642;22.430;2022-12-18T08:31:24;13.10;97.26
65478;SHT31;53678;39.642;22.430;2022-12-18T08:33:51;13.03;96.98
65478;SHT31;53678;39.642;22.430;2022-12-18T08:36:19;13.04;97.24
65478;SHT31;53678;39.642;22.430;2022-12-18T08:38:46;13.10;97.09
65478;SHT31;53678;39.642;22.430;2022-12-18T08:41:14;13.11;97.12
65478;SHT31;53678;39.642;22.430;2022-12-18T08:43:40;13.11;96.92
65478;SHT31;53678;39.642;22.430;2022-12-18T08:46:26;13.15;97.13
65478;SHT31;53678;39.642;22.430;2022-12-18T08:48:53;13.16;97.22
65478;SHT31;53678;39.642;22.430;2022-12-18T08:51:20;13.15;97.28
65478;SHT31;53678;39.642;22.430;2022-12-18T08:53:46;13.08;96.99
65478;SHT31;53678;39.642;22.430;2022-12-18T08:56:13;13.10;97.21
65478;SHT31;53678;39.642;22.430;2022-12-18T08:58:40;13.01;96.97
65478;SHT31;53678;39.642;22.430;2022-12-18T09:01:09;13.10;97.21
65478;SHT31;53678;39.642;22.430;2022-12-18T09:03:36;13.15;97.19
65478;SHT31;53678;39.642;22.430;2022-12-18T09:06:03;13.16;97.11
65478;SHT31;53678;39.642;22.430;2022-12-18T09:08:29;13.21;97.08
65478;SHT31;53678;39.642;22.430;2022-12-18T09:10:55;13.28;96.89
65478;SHT31;53678;39.642;22.430;2022-12-18T09:13:21;13.29;96.94
65478;SHT31;53678;39.642;22.430;2022-12-18T09:15:50;13.25;96.91
65478;SHT31;53678;39.642;22.430;2022-12-18T09:18:18;13.22;96.99
65478;SHT31;53678;39.642;22.430;2022-12-18T09:20:45;13.24;96.82
65478;SHT31;53678;39.642;22.430;2022-12-18T09:23:11;13.24;96.89
65478;SHT31;53678;39.642;22.430;2022-12-18T09:25:38;13.34;96.78
65478;SHT31;53678;39.642;22.430;2022-12-18T09:28:13;13.39;96.70
65478;SHT31;53678;39.642;22.430;2022-12-18T09:30:43;13.39;96.29
65478;SHT31;53678;39.642;22.430;2022-12-18T09:33:09;13.42;96.08
65478;SHT31;53678;39.642;22.430;2022-12-18T09:35:40;13.48;96.61
65478;SHT31;53678;39.642;22.430;2022-12-18T09:38:08;14.20;97.42
65478;SHT31;53678;39.642;22.430;2022-12-18T09:40:43;14.06;94.70
65478;SHT31;53678;39.642;22.430;2022-12-18T09:43:26;14.04;95.66
65478;SHT31;53678;39.642;22.430;2022-12-18T09:45:59;13.99;94.38
65478;SHT31;53678;39.642;22.430;2022-12-18T09:48:39;13.89;95.14
65478;SHT31;53678;39.642;22.430;2022-12-18T09:51:18;13.83;95.31
65478;SHT31;53678;39.642;22.430;2022-12-18T09:53:51;13.82;95.48
65478;SHT31;53678;39.642;22.430;2022-12-18T09:56:20;13.99;95.32
65478;SHT31;53678;39.642;22.430;2022-12-18T09:58:55;14.11;93.72
65478;SHT31;53678;39.642;22.430;2022-12-18T10:01:22;13.96;94.21
65478;SHT31;53678;39.642;22.430;2022-12-18T10:03:50;14.06;94.34
65478;SHT31;53678;39.642;22.430;2022-12-18T10:09:20;14.28;93.19
65478;SHT31;53678;39.642;22.430;2022-12-18T10:17:51;14.37;93.22
65478;SHT31;53678;39.642;22.430;2022-12-18T10:28:20;14.55;93.16
65478;SHT31;53678;39.642;22.430;2022-12-18T10:30:47;14.49;92.92
65478;SHT31;53678;39.642;22.430;2022-12-18T10:33:19;14.54;93.46
65478;SHT31;53678;39.642;22.430;2022-12-18T10:35:48;14.64;93.06
65478;SHT31;53678;39.642;22.430;2022-12-18T10:41:00;14.75;91.95
65478;SHT31;53678;39.642;22.430;2022-12-18T10:43:35;14.61;91.23
65478;SHT31;53678;39.642;22.430;2022-12-18T10:56:21;14.51;92.27
65478;SHT31;53678;39.642;22.430;2022-12-18T10:59:06;14.55;92.12
65478;SHT31;53678;39.642;22.430;2022-12-18T11:01:48;14.61;92.37
65478;SHT31;53678;39.642;22.430;2022-12-18T11:04:30;14.55;92.14
65478;SHT31;53678;39.642;22.430;2022-12-18T11:07:07;14.49;92.38
65478;SHT31;53678;39.642;22.430;2022-12-18T11:09:39;14.75;93.35
65478;SHT31;53678;39.642;22.430;2022-12-18T11:12:20;14.88;90.98
65478;SHT31;53678;39.642;22.430;2022-12-18T11:14:51;14.89;90.98
65478;SHT31;53678;39.642;22.430;2022-12-18T11:17:38;14.85;91.67
65478;SHT31;53678;39.642;22.430;2022-12-18T11:20:32;14.83;91.71
65478;SHT31;53678;39.642;22.430;2022-12-18T11:23:00;14.92;91.41
65478;SHT31;53678;39.642;22.430;2022-12-18T11:25:27;14.88;90.83
65478;SHT31;53678;39.642;22.430;2022-12-18T11:27:58;14.92;90.83
65478;SHT31;53678;39.642;22.430;2022-12-18T11:30:35;14.83;91.33
65478;SHT31;53678;39.642;22.430;2022-12-18T11:33:21;14.80;91.50
65478;SHT31;53678;39.642;22.430;2022-12-18T11:35:50;14.98;90.86
65478;SHT31;53678;39.642;22.430;2022-12-18T11:38:28;15.00;90.83
65478;SHT31;53678;39.642;22.430;2022-12-18T11:41:00;14.82;90.87
65478;SHT31;53678;39.642;22.430;2022-12-18T11:43:58;14.69;91.46
65478;SHT31;53678;39.642;22.430;2022-12-18T11:46:59;14.80;91.38
65478;SHT31;53678;39.642;22.430;2022-12-18T11:49:22;14.69;91.30
65478;SHT31;53678;39.642;22.430;2022-12-18T11:54:28;14.89;91.34
65478;SHT31;53678;39.642;22.430;2022-12-18T11:59:59;14.69;91.43
65478;SHT31;53678;39.642;22.430;2022-12-18T12:10:25;14.89;91.14
65478;SHT31;53678;39.642;22.430;2022-12-18T12:13:06;14.92;91.01
65478;SHT31;53678;39.642;22.430;2022-12-18T12:15:57;15.00;90.92
65478;SHT31;53678;39.642;22.430;2022-12-18T12:21:27;14.83;91.63
65478;SHT31;53678;39.642;22.430;2022-12-18T12:24:09;14.88;91.52
65478;SHT31;53678;39.642;22.430;2022-12-18T12:29:35;14.73;91.95
65478;SHT31;53678;39.642;22.430;2022-12-18T12:32:21;14.80;92.04
65478;SHT31;53678;39.642;22.430;2022-12-18T12:40:19;14.88;91.48
65478;SHT31;53678;39.642;22.430;2022-12-18T12:42:55;14.83;91.22
65478;SHT31;53678;39.642;22.430;2022-12-18T12:45:50;14.83;91.37
65478;SHT31;53678;39.642;22.430;2022-12-18T12:50:47;15.03;90.22
65478;SHT31;53678;39.642;22.430;2022-12-18T12:53:36;14.90;90.61
65478;SHT31;53678;39.642;22.430;2022-12-18T12:56:04;14.90;91.20
65478;SHT31;53678;39.642;22.430;2022-12-18T13:01:52;14.98;90.68
65478;SHT31;53678;39.642;22.430;2022-12-18T13:07:17;14.67;91.88
65478;SHT31;53678;39.642;22.430;2022-12-18T13:18:13;14.95;91.32
65478;SHT31;53678;39.642;22.430;2022-12-18T13:21:26;15.02;91.06
65478;SHT31;53678;39.642;22.430;2022-12-18T13:23:29;14.99;90.70
65478;SHT31;53678;39.642;22.430;2022-12-18T13:34:26;15.13;90.61
65478;SHT31;53678;39.642;22.430;2022-12-18T13:36:54;14.96;91.34
65478;SHT31;53678;39.642;22.430;2022-12-18T13:39:23;14.85;91.72
65478;SHT31;53678;39.642;22.430;2022-12-18T13:44:59;14.86;91.29
65478;SHT31;53678;39.642;22.430;2022-12-18T13:47:30;14.92;91.15
65478;SHT31;53678;39.642;22.430;2022-12-18T13:49:58;15.02;90.96
65478;SHT31;53678;39.642;22.430;2022-12-18T13:52:28;15.06;90.74
65478;SHT31;53678;39.642;22.430;2022-12-18T13:55:00;15.06;90.68
65478;SHT31;53678;39.642;22.430;2022-12-18T13:59:57;15.19;90.40
65478;SHT31;53678;39.642;22.430;2022-12-18T14:02:25;15.16;90.31
65478;SHT31;53678;39.642;22.430;2022-12-18T14:04:51;15.07;90.40
65478;SHT31;53678;39.642;22.430;2022-12-18T14:07:22;14.96;90.64
65478;SHT31;53678;39.642;22.430;2022-12-18T14:09:53;14.85;91.26
65478;SHT31;53678;39.642;22.430;2022-12-18T14:18:45;14.90;90.98
65478;SHT31;53678;39.642;22.430;2022-12-18T14:21:30;14.83;91.45
65478;SHT31;53678;39.642;22.430;2022-12-18T14:24:16;14.72;91.89
65478;SHT31;53678;39.642;22.430;2022-12-18T14:26:43;14.71;91.75
65478;SHT31;53678;39.642;22.430;2022-12-18T14:29:22;14.92;90.98
65478;SHT31;53678;39.642;22.430;2022-12-18T14:32:24;14.76;91.18
65478;SHT31;53678;39.642;22.430;2022-12-18T14:34:51;14.71;91.88
65478;SHT31;53678;39.642;22.430;2022-12-18T14:37:23;14.67;91.97
65478;SHT31;53678;39.642;22.430;2022-12-18T14:39:58;14.73;91.96
65478;SHT31;53678;39.642;22.430;2022-12-18T14:42:28;14.92;91.43
65478;SHT31;53678;39.642;22.430;2022-12-18T14:48:00;14.79;91.29
65478;SHT31;53678;39.642;22.430;2022-12-18T14:50:26;14.69;91.75
65478;SHT31;53678;39.642;22.430;2022-12-18T14:52:55;14.65;91.54
65478;SHT31;53678;39.642;22.430;2022-12-18T14:55:21;14.54;92.15
65478;SHT31;53678;39.642;22.430;2022-12-18T14:57:52;14.51;92.30
65478;SHT31;53678;39.642;22.430;2022-12-18T15:00:21;14.49;92.52
65478;SHT31;53678;39.642;22.430;2022-12-18T15:02:51;14.52;92.46
65478;SHT31;53678;39.642;22.430;2022-12-18T15:05:19;14.59;92.12
65478;SHT31;53678;39.642;22.430;2022-12-18T15:07:51;14.57;91.72
65478;SHT31;53678;39.642;22.430;2022-12-18T15:10:26;14.55;92.05
65478;SHT31;53678;39.642;22.430;2022-12-18T15:20:56;14.58;91.69
65478;SHT31;53678;39.642;22.430;2022-12-18T15:23:47;14.42;91.64
65478;SHT31;53678;39.642;22.430;2022-12-18T15:26:15;14.31;91.95
65478;SHT31;53678;39.642;22.430;2022-12-18T15:28:56;14.31;92.59
65478;SHT31;53678;39.642;22.430;2022-12-18T15:31:34;14.28;92.49
65478;SHT31;53678;39.642;22.430;2022-12-18T15:34:12;14.21;92.84
65478;SHT31;53678;39.642;22.430;2022-12-18T15:36:39;14.31;92.62
65478;SHT31;53678;39.642;22.430;2022-12-18T15:39:05;14.32;92.56
65478;SHT31;53678;39.642;22.430;2022-12-18T15:41:35;14.38;91.88
65478;SHT31;53678;39.642;22.430;2022-12-18T15:44:03;14.22;92.60
65478;SHT31;53678;39.642;22.430;2022-12-18T15:46:42;14.03;93.09
65478;SHT31;53678;39.642;22.430;2022-12-18T15:49:08;14.04;92.97
65478;SHT31;53678;39.642;22.430;2022-12-18T15:51:36;14.06;92.80
65478;SHT31;53678;39.642;22.430;2022-12-18T15:54:04;14.10;92.96
65478;SHT31;53678;39.642;22.430;2022-12-18T15:56:31;14.04;93.40
65478;SHT31;53678;39.642;22.430;2022-12-18T15:59:20;14.06;93.57
65478;SHT31;53678;39.642;22.430;2022-12-18T16:01:49;13.86;93.66
65478;SHT31;53678;39.642;22.430;2022-12-18T16:04:18;13.74;94.21
65478;SHT31;53678;39.642;22.430;2022-12-18T16:06:46;13.74;94.57
65478;SHT31;53678;39.642;22.430;2022-12-18T16:09:12;13.70;94.63
65478;SHT31;53678;39.642;22.430;2022-12-18T16:11:41;13.74;94.69
65478;SHT31;53678;39.642;22.430;2022-12-18T16:16:43;13.70;94.32
65478;SHT31;53678;39.642;22.430;2022-12-18T16:19:09;13.87;93.99
65478;SHT31;53678;39.642;22.430;2022-12-18T16:21:35;13.84;93.23
65478;SHT31;53678;39.642;22.430;2022-12-18T16:24:00;13.91;92.95
65478;SHT31;53678;39.642;22.430;2022-12-18T16:26:26;13.96;93.08
65478;SHT31;53678;39.642;22.430;2022-12-18T16:28:52;13.89;92.78
65478;SHT31;53678;39.642;22.430;2022-12-18T16:31:19;13.89;92.89
65478;SHT31;53678;39.642;22.430;2022-12-18T16:33:44;13.96;92.84
65478;SHT31;53678;39.642;22.430;2022-12-18T16:36:10;13.90;92.76
65478;SHT31;53678;39.642;22.430;2022-12-18T16:38:36;13.82;93.28
65478;SHT31;53678;39.642;22.430;2022-12-18T16:41:18;13.86;93.04
65478;SHT31;53678;39.642;22.430;2022-12-18T16:43:57;13.89;93.09
65478;SHT31;53678;39.642;22.430;2022-12-18T16:46:23;13.93;92.56
65478;SHT31;53678;39.642;22.430;2022-12-18T16:48:49;13.90;92.62
65478;SHT31;53678;39.642;22.430;2022-12-18T16:51:15;13.86;93.04
65478;SHT31;53678;39.642;22.430;2022-12-18T16:53:41;13.99;92.84
65478;SHT31;53678;39.642;22.430;2022-12-18T16:56:08;13.91;93.00
65478;SHT31;53678;39.642;22.430;2022-12-18T16:58:34;13.79;93.60
65478;SHT31;53678;39.642;22.430;2022-12-18T17:01:07;13.72;93.11
65478;SHT31;53678;39.642;22.430;2022-12-18T17:03:33;13.69;93.47
65478;SHT31;53678;39.642;22.430;2022-12-18T17:06:05;13.65;94.17
65478;SHT31;53678;39.642;22.430;2022-12-18T17:08:34;13.67;93.50
65478;SHT31;53678;39.642;22.430;2022-12-18T17:11:05;13.73;94.12
65478;SHT31;53678;39.642;22.430;2022-12-18T17:13:31;13.79;93.59
65478;SHT31;53678;39.642;22.430;2022-12-18T17:16:06;13.65;93.91
65478;SHT31;53678;39.642;22.430;2022-12-18T17:18:34;13.66;93.93
65478;SHT31;53678;39.642;22.430;2022-12-18T17:21:01;13.59;93.78
65478;SHT31;53678;39.642;22.430;2022-12-18T17:23:29;13.59;94.08
65478;SHT31;53678;39.642;22.430;2022-12-18T17:25:57;13.53;94.12
65478;SHT31;53678;39.642;22.430;2022-12-18T17:28:25;13.66;93.91
65478;SHT31;53678;39.642;22.430;2022-12-18T17:30:54;13.66;93.29
65478;SHT31;53678;39.642;22.430;2022-12-18T17:33:21;13.56;93.87
65478;SHT31;53678;39.642;22.430;2022-12-18T17:35:48;13.38;94.25
65478;SHT31;53678;39.642;22.430;2022-12-18T17:38:14;13.45;93.99
65478;SHT31;53678;39.642;22.430;2022-12-18T17:40:40;13.39;94.65
65478;SHT31;53678;39.642;22.430;2022-12-18T17:43:07;13.38;94.63
65478;SHT31;53678;39.642;22.430;2022-12-18T17:45:38;13.39;94.93
65478;SHT31;53678;39.642;22.430;2022-12-18T17:48:05;13.32;94.67
65478;SHT31;53678;39.642;22.430;2022-12-18T17:50:35;13.28;95.06
65478;SHT31;53678;39.642;22.430;2022-12-18T17:53:02;13.28;95.23
65478;SHT31;53678;39.642;22.430;2022-12-18T17:55:28;13.25;95.32
65478;SHT31;53678;39.642;22.430;2022-12-18T17:57:54;13.24;95.45